sensor_id;sensor_type;location;lat;lon;timestamp;pressure;altitude;pressure_sealevel;temperature;humidity
11806;BME280;5960;42.602;23.482;2022-07-22T00:00:37;93531.34;;;25.22;44.16
11806;BME280;5960;42.602;23.482;2022-07-22T00:03:03;93530.94;;;25.04;44.64
11806;BME280;5960;42.602;23.482;2022-07-22T00:05:30;93524.22;;;24.97;45.28
11806;BME280;5960;42.602;23.482;2022-07-22T00:07:57;93534.50;;;24.89;45.94
11806;BME280;5960;42.602;23.482;2022-07-22T00:10:24;93529.69;;;24.76;45.74
11806;BME280;5960;42.602;23.482;2022-07-22T00:12:52;93527.53;;;24.78;45.63
11806;BME280;5960;42.602;23.482;2022-07-22T00:15:19;93535.06;;;24.76;45.09
11806;BME280;5960;42.602;23.482;2022-07-22T00:17:45;93528.66;;;24.72;45.54
11806;BME280;5960;42.602;23.482;2022-07-22T00:20:12;93525.66;;;24.68;45.32
11806;BME280;5960;42.602;23.482;2022-07-22T00:22:39;93525.94;;;24.67;45.72
11806;BME280;5960;42.602;23.482;2022-07-22T00:25:06;93532.72;;;24.54;46.63
11806;BME280;5960;42.602;23.482;2022-07-22T00:27:33;93528.72;;;24.46;46.80
11806;BME280;5960;42.602;23.482;2022-07-22T00:30:02;93530.88;;;24.39;46.53
11806;BME280;5960;42.602;23.482;2022-07-22T00:32:29;93540.56;;;24.34;47.26
11806;BME280;5960;42.602;23.482;2022-07-22T00:34:56;93540.03;;;24.38;46.80
11806;BME280;5960;42.602;23.482;2022-07-22T00:37:23;93533.56;;;24.44;47.00
11806;BME280;5960;42.602;23.482;2022-07-22T00:39:50;93536.78;;;24.41;46.90
11806;BME280;5960;42.602;23.482;2022-07-22T00:42:17;93537.34;;;24.43;46.24
11806;BME280;5960;42.602;23.482;2022-07-22T00:44:44;93533.03;;;24.37;46.56
11806;BME280;5960;42.602;23.482;2022-07-22T00:47:13;93537.34;;;24.38;46.10
11806;BME280;5960;42.602;23.482;2022-07-22T00:49:40;93530.09;;;24.28;46.45
11806;BME280;5960;42.602;23.482;2022-07-22T00:52:07;93529.56;;;24.21;46.77
11806;BME280;5960;42.602;23.482;2022-07-22T00:54:36;93528.47;;;24.22;46.94
11806;BME280;5960;42.602;23.482;2022-07-22T00:57:03;93520.94;;;24.24;47.30
11806;BME280;5960;42.602;23.482;2022-07-22T00:59:30;93528.53;;;24.16;47.32
11806;BME280;5960;42.602;23.482;2022-07-22T01:01:57;93532.03;;;24.01;47.79
11806;BME280;5960;42.602;23.482;2022-07-22T01:04:25;93536.06;;;23.94;47.95
11806;BME280;5960;42.602;23.482;2022-07-22T01:06:52;93527.16;;;23.93;48.08
11806;BME280;5960;42.602;23.482;2022-07-22T01:09:18;93530.38;;;23.90;48.35
11806;BME280;5960;42.602;23.482;2022-07-22T01:11:45;93525.28;;;23.94;47.92
11806;BME280;5960;42.602;23.482;2022-07-22T01:14:12;93525.53;;;24.08;47.41
11806;BME280;5960;42.602;23.482;2022-07-22T01:16:39;93525.53;;;24.08;47.32
11806;BME280;5960;42.602;23.482;2022-07-22T01:19:05;93521.25;;;23.96;47.12
11806;BME280;5960;42.602;23.482;2022-07-22T01:21:33;93520.44;;;23.91;47.26
11806;BME280;5960;42.602;23.482;2022-07-22T01:24:00;93523.94;;;23.86;47.25
11806;BME280;5960;42.602;23.482;2022-07-22T01:26:27;93525.56;;;23.77;47.89
11806;BME280;5960;42.602;23.482;2022-07-22T01:28:54;93524.50;;;23.78;48.07
11806;BME280;5960;42.602;23.482;2022-07-22T01:31:21;93528.25;;;23.71;48.33
11806;BME280;5960;42.602;23.482;2022-07-22T01:33:47;93520.97;;;23.72;48.29
11806;BME280;5960;42.602;23.482;2022-07-22T01:36:14;93531.72;;;23.72;48.00
11806;BME280;5960;42.602;23.482;2022-07-22T01:38:42;93527.69;;;23.64;48.26
11806;BME280;5960;42.602;23.482;2022-07-22T01:41:09;93519.66;;;23.59;48.31
11806;BME280;5960;42.602;23.482;2022-07-22T01:43:36;93522.88;;;23.56;48.61
11806;BME280;5960;42.602;23.482;2022-07-22T01:46:03;93517.50;;;23.51;48.63
11806;BME280;5960;42.602;23.482;2022-07-22T01:48:30;93523.38;;;23.42;48.67
11806;BME280;5960;42.602;23.482;2022-07-22T01:50:58;93520.19;;;23.35;48.93
11806;BME280;5960;42.602;23.482;2022-07-22T01:53:25;93523.38;;;23.27;49.42
11806;BME280;5960;42.602;23.482;2022-07-22T01:55:53;93523.63;;;23.20;49.24
11806;BME280;5960;42.602;23.482;2022-07-22T01:58:20;93524.41;;;23.21;49.34
11806;BME280;5960;42.602;23.482;2022-07-22T02:00:47;93526.88;;;23.22;50.01
11806;BME280;5960;42.602;23.482;2022-07-22T02:03:14;93525.25;;;23.32;49.81
11806;BME280;5960;42.602;23.482;2022-07-22T02:05:41;93536.84;;;23.32;49.83
11806;BME280;5960;42.602;23.482;2022-07-22T02:08:09;93530.38;;;23.38;49.76
11806;BME280;5960;42.602;23.482;2022-07-22T02:10:37;93534.66;;;23.24;50.04
11806;BME280;5960;42.602;23.482;2022-07-22T02:13:05;93531.13;;;23.18;49.77
11806;BME280;5960;42.602;23.482;2022-07-22T02:15:32;93526.03;;;23.11;49.82
11806;BME280;5960;42.602;23.482;2022-07-22T02:17:59;93522.78;;;23.20;49.50
11806;BME280;5960;42.602;23.482;2022-07-22T02:20:26;93531.94;;;23.19;49.86
11806;BME280;5960;42.602;23.482;2022-07-22T02:22:52;93534.09;;;23.11;49.84
11806;BME280;5960;42.602;23.482;2022-07-22T02:25:19;93533.25;;;23.06;49.92
11806;BME280;5960;42.602;23.482;2022-07-22T02:27:46;93535.94;;;23.11;50.35
11806;BME280;5960;42.602;23.482;2022-07-22T02:30:14;93539.44;;;23.06;50.40
11806;BME280;5960;42.602;23.482;2022-07-22T02:32:41;93539.44;;;23.06;50.10
11806;BME280;5960;42.602;23.482;2022-07-22T02:35:08;93537.00;;;23.05;50.51
11806;BME280;5960;42.602;23.482;2022-07-22T02:37:34;93544.53;;;22.97;51.19
11806;BME280;5960;42.602;23.482;2022-07-22T02:40:03;93543.09;;;22.74;51.42
11806;BME280;5960;42.602;23.482;2022-07-22T02:42:30;93538.22;;;22.71;51.39
11806;BME280;5960;42.602;23.482;2022-07-22T02:44:57;93544.66;;;22.70;51.69
11806;BME280;5960;42.602;23.482;2022-07-22T02:47:25;93549.72;;;22.51;52.34
11806;BME280;5960;42.602;23.482;2022-07-22T02:49:52;93538.59;;;22.37;52.78
11806;BME280;5960;42.602;23.482;2022-07-22T02:52:19;93536.13;;;22.25;53.34
11806;BME280;5960;42.602;23.482;2022-07-22T02:54:45;93533.09;;;22.11;53.22
11806;BME280;5960;42.602;23.482;2022-07-22T02:57:12;93529.25;;;22.02;53.88
11806;BME280;5960;42.602;23.482;2022-07-22T02:59:39;93534.91;;;22.00;53.67
11806;BME280;5960;42.602;23.482;2022-07-22T03:02:06;93535.16;;;21.99;53.65
11806;BME280;5960;42.602;23.482;2022-07-22T03:04:34;93541.13;;;22.11;52.88
11806;BME280;5960;42.602;23.482;2022-07-22T03:07:01;93542.16;;;22.05;53.36
11806;BME280;5960;42.602;23.482;2022-07-22T03:09:27;93542.97;;;22.05;53.12
11806;BME280;5960;42.602;23.482;2022-07-22T03:11:54;93535.69;;;22.01;53.99
11806;BME280;5960;42.602;23.482;2022-07-22T03:14:21;93534.38;;;22.03;53.89
11806;BME280;5960;42.602;23.482;2022-07-22T03:16:47;93526.13;;;22.15;52.78
11806;BME280;5960;42.602;23.482;2022-07-22T03:19:14;93528.84;;;22.20;53.37
11806;BME280;5960;42.602;23.482;2022-07-22T03:21:42;93530.28;;;22.33;52.87
11806;BME280;5960;42.602;23.482;2022-07-22T03:24:09;93531.63;;;22.36;52.33
11806;BME280;5960;42.602;23.482;2022-07-22T03:26:36;93534.84;;;22.38;52.37
11806;BME280;5960;42.602;23.482;2022-07-22T03:29:04;93532.44;;;22.42;52.49
11806;BME280;5960;42.602;23.482;2022-07-22T03:31:31;93538.63;;;22.42;53.09
11806;BME280;5960;42.602;23.482;2022-07-22T03:33:58;93540.00;;;22.45;53.02
11806;BME280;5960;42.602;23.482;2022-07-22T03:36:26;93543.53;;;22.50;52.81
11806;BME280;5960;42.602;23.482;2022-07-22T03:38:54;93536.53;;;22.49;52.89
11806;BME280;5960;42.602;23.482;2022-07-22T03:41:21;93541.69;;;22.56;52.15
11806;BME280;5960;42.602;23.482;2022-07-22T03:43:47;93539.81;;;22.62;52.03
11806;BME280;5960;42.602;23.482;2022-07-22T03:46:14;93548.44;;;22.69;52.29
11806;BME280;5960;42.602;23.482;2022-07-22T03:48:41;93547.34;;;22.70;52.84
11806;BME280;5960;42.602;23.482;2022-07-22T03:51:08;93552.25;;;22.78;52.44
11806;BME280;5960;42.602;23.482;2022-07-22T03:53:34;93550.09;;;22.80;53.01
11806;BME280;5960;42.602;23.482;2022-07-22T03:56:03;93560.56;;;22.82;52.59
11806;BME280;5960;42.602;23.482;2022-07-22T03:58:30;93552.28;;;22.89;52.28
11806;BME280;5960;42.602;23.482;2022-07-22T04:00:57;93561.19;;;22.99;51.94
11806;BME280;5960;42.602;23.482;2022-07-22T04:03:23;93561.47;;;23.08;51.24
11806;BME280;5960;42.602;23.482;2022-07-22T04:05:50;93560.69;;;23.13;51.14
11806;BME280;5960;42.602;23.482;2022-07-22T04:08:17;93564.19;;;23.13;51.61
11806;BME280;5960;42.602;23.482;2022-07-22T04:10:45;93561.50;;;23.13;51.75
11806;BME280;5960;42.602;23.482;2022-07-22T04:13:13;93566.38;;;23.27;50.38
11806;BME280;5960;42.602;23.482;2022-07-22T04:15:39;93565.06;;;23.35;50.31
11806;BME280;5960;42.602;23.482;2022-07-22T04:18:06;93559.94;;;23.38;50.64
11806;BME280;5960;42.602;23.482;2022-07-22T04:20:33;93559.94;;;23.38;51.22
11806;BME280;5960;42.602;23.482;2022-07-22T04:23:00;93564.00;;;23.41;51.64
11806;BME280;5960;42.602;23.482;2022-07-22T04:25:26;93564.56;;;23.48;51.25
11806;BME280;5960;42.602;23.482;2022-07-22T04:27:53;93565.34;;;23.49;51.64
11806;BME280;5960;42.602;23.482;2022-07-22T04:30:23;93574.50;;;23.48;52.21
11806;BME280;5960;42.602;23.482;2022-07-22T04:32:49;93574.75;;;23.51;52.50
11806;BME280;5960;42.602;23.482;2022-07-22T04:35:17;93578.00;;;23.48;53.19
11806;BME280;5960;42.602;23.482;2022-07-22T04:37:43;93576.91;;;23.49;53.35
11806;BME280;5960;42.602;23.482;2022-07-22T04:40:11;93587.66;;;23.54;52.76
11806;BME280;5960;42.602;23.482;2022-07-22T04:42:38;93583.13;;;23.60;52.59
11806;BME280;5960;42.602;23.482;2022-07-22T04:45:05;93590.38;;;23.65;51.96
11806;BME280;5960;42.602;23.482;2022-07-22T04:47:33;93590.41;;;23.70;51.51
11806;BME280;5960;42.602;23.482;2022-07-22T04:50:00;93599.53;;;23.74;51.45
11806;BME280;5960;42.602;23.482;2022-07-22T04:52:27;93597.13;;;23.83;51.43
11806;BME280;5960;42.602;23.482;2022-07-22T04:54:54;93591.19;;;23.76;51.78
11806;BME280;5960;42.602;23.482;2022-07-22T04:57:24;93594.44;;;23.83;51.92
11806;BME280;5960;42.602;23.482;2022-07-22T04:59:50;93599.00;;;23.77;52.21
11806;BME280;5960;42.602;23.482;2022-07-22T05:02:17;93587.72;;;23.91;51.71
11806;BME280;5960;42.602;23.482;2022-07-22T05:04:45;93596.03;;;23.94;52.13
11806;BME280;5960;42.602;23.482;2022-07-22T05:07:12;93592.28;;;24.16;51.39
11806;BME280;5960;42.602;23.482;2022-07-22T05:09:39;93593.09;;;24.32;51.44
11806;BME280;5960;42.602;23.482;2022-07-22T05:12:06;93594.13;;;24.41;50.92
11806;BME280;5960;42.602;23.482;2022-07-22T05:14:33;93593.28;;;24.67;50.10
11806;BME280;5960;42.602;23.482;2022-07-22T05:17:00;93598.34;;;24.89;48.69
11806;BME280;5960;42.602;23.482;2022-07-22T05:19:26;93592.91;;;25.09;48.14
11806;BME280;5960;42.602;23.482;2022-07-22T05:21:55;93595.50;;;25.30;48.17
11806;BME280;5960;42.602;23.482;2022-07-22T05:24:21;93591.63;;;25.52;48.06
11806;BME280;5960;42.602;23.482;2022-07-22T05:26:48;93607.38;;;25.79;48.63
11806;BME280;5960;42.602;23.482;2022-07-22T05:29:15;93608.59;;;25.97;48.27
11806;BME280;5960;42.602;23.482;2022-07-22T05:31:41;93606.84;;;26.17;47.77
11806;BME280;5960;42.602;23.482;2022-07-22T05:34:08;93611.53;;;26.36;47.37
11806;BME280;5960;42.602;23.482;2022-07-22T05:36:35;93610.06;;;26.49;46.94
11806;BME280;5960;42.602;23.482;2022-07-22T05:39:03;93612.34;;;26.66;47.13
11806;BME280;5960;42.602;23.482;2022-07-22T05:41:30;93618.97;;;26.79;46.77
11806;BME280;5960;42.602;23.482;2022-07-22T05:43:56;93615.31;;;26.94;46.23
11806;BME280;5960;42.602;23.482;2022-07-22T05:46:23;93613.28;;;27.05;46.18
11806;BME280;5960;42.602;23.482;2022-07-22T05:48:50;93608.56;;;27.15;45.57
11806;BME280;5960;42.602;23.482;2022-07-22T05:51:17;93614.34;;;27.28;45.10
11806;BME280;5960;42.602;23.482;2022-07-22T05:53:44;93611.22;;;27.40;43.15
11806;BME280;5960;42.602;23.482;2022-07-22T05:56:12;93602.72;;;27.52;43.63
11806;BME280;5960;42.602;23.482;2022-07-22T05:58:40;93613.88;;;27.64;42.91
11806;BME280;5960;42.602;23.482;2022-07-22T06:01:07;93618.78;;;27.81;43.79
11806;BME280;5960;42.602;23.482;2022-07-22T06:03:34;93614.78;;;27.98;43.94
11806;BME280;5960;42.602;23.482;2022-07-22T06:06:01;93613.47;;;28.14;42.67
11806;BME280;5960;42.602;23.482;2022-07-22T06:08:30;93616.22;;;28.28;42.44
11806;BME280;5960;42.602;23.482;2022-07-22T06:10:57;93623.88;;;28.40;40.57
11806;BME280;5960;42.602;23.482;2022-07-22T06:13:25;93616.88;;;28.53;40.91
11806;BME280;5960;42.602;23.482;2022-07-22T06:15:53;93622.41;;;28.62;40.16
11806;BME280;5960;42.602;23.482;2022-07-22T06:18:19;93618.50;;;28.68;39.57
11806;BME280;5960;42.602;23.482;2022-07-22T06:20:46;93621.44;;;28.72;39.51
11806;BME280;5960;42.602;23.482;2022-07-22T06:23:13;93615.03;;;28.81;40.35
11806;BME280;5960;42.602;23.482;2022-07-22T06:25:40;93619.66;;;28.95;39.33
11806;BME280;5960;42.602;23.482;2022-07-22T06:28:07;93613.44;;;29.08;39.54
11806;BME280;5960;42.602;23.482;2022-07-22T06:30:35;93611.34;;;29.19;39.43
11806;BME280;5960;42.602;23.482;2022-07-22T06:33:02;93616.16;;;29.36;39.60
11806;BME280;5960;42.602;23.482;2022-07-22T06:35:29;93617.56;;;29.48;38.91
11806;BME280;5960;42.602;23.482;2022-07-22T06:37:56;93619.25;;;29.57;39.39
11806;BME280;5960;42.602;23.482;2022-07-22T06:40:23;93620.94;;;29.67;38.70
11806;BME280;5960;42.602;23.482;2022-07-22T06:42:49;93619.59;;;29.79;38.97
11806;BME280;5960;42.602;23.482;2022-07-22T06:45:16;93611.66;;;29.82;39.15
11806;BME280;5960;42.602;23.482;2022-07-22T06:47:44;93621.41;;;29.83;39.48
11806;BME280;5960;42.602;23.482;2022-07-22T06:50:11;93625.13;;;29.87;39.11
11806;BME280;5960;42.602;23.482;2022-07-22T06:52:38;93631.44;;;29.83;38.35
11806;BME280;5960;42.602;23.482;2022-07-22T06:55:07;93623.19;;;29.88;39.60
11806;BME280;5960;42.602;23.482;2022-07-22T06:57:34;93629.22;;;29.85;38.44
11806;BME280;5960;42.602;23.482;2022-07-22T07:00:02;93629.78;;;29.96;37.59
11806;BME280;5960;42.602;23.482;2022-07-22T07:02:29;93625.72;;;29.98;37.59
11806;BME280;5960;42.602;23.482;2022-07-22T07:04:57;93628.16;;;30.09;37.26
11806;BME280;5960;42.602;23.482;2022-07-22T07:07:24;93629.38;;;30.16;36.65
11806;BME280;5960;42.602;23.482;2022-07-22T07:09:51;93624.00;;;30.25;36.03
11806;BME280;5960;42.602;23.482;2022-07-22T07:12:17;93632.56;;;30.18;36.37
11806;BME280;5960;42.602;23.482;2022-07-22T07:14:44;93635.28;;;30.18;35.83
11806;BME280;5960;42.602;23.482;2022-07-22T07:17:11;93636.28;;;30.23;36.28
11806;BME280;5960;42.602;23.482;2022-07-22T07:19:38;93640.03;;;30.13;36.42
11806;BME280;5960;42.602;23.482;2022-07-22T07:22:06;93637.94;;;30.32;35.93
11806;BME280;5960;42.602;23.482;2022-07-22T07:24:33;93644.31;;;30.28;36.14
11806;BME280;5960;42.602;23.482;2022-07-22T07:27:00;93634.59;;;30.13;36.69
11806;BME280;5960;42.602;23.482;2022-07-22T07:29:26;93630.88;;;30.31;36.96
11806;BME280;5960;42.602;23.482;2022-07-22T07:31:53;93635.22;;;30.32;36.80
11806;BME280;5960;42.602;23.482;2022-07-22T07:34:20;93640.31;;;30.25;35.65
11806;BME280;5960;42.602;23.482;2022-07-22T07:36:47;93635.66;;;29.89;36.90
11806;BME280;5960;42.602;23.482;2022-07-22T07:39:15;93641.41;;;29.87;36.75
11806;BME280;5960;42.602;23.482;2022-07-22T07:41:42;93638.69;;;30.01;37.00
11806;BME280;5960;42.602;23.482;2022-07-22T07:44:08;93641.59;;;29.91;37.02
11806;BME280;5960;42.602;23.482;2022-07-22T07:46:35;93648.81;;;29.96;36.78
11806;BME280;5960;42.602;23.482;2022-07-22T07:49:02;93649.28;;;30.12;35.86
11806;BME280;5960;42.602;23.482;2022-07-22T07:51:29;93652.28;;;30.24;35.90
11806;BME280;5960;42.602;23.482;2022-07-22T07:53:55;93649.56;;;30.24;35.82
11806;BME280;5960;42.602;23.482;2022-07-22T07:56:23;93642.38;;;30.28;36.16
11806;BME280;5960;42.602;23.482;2022-07-22T07:58:50;93644.31;;;30.51;35.62
11806;BME280;5960;42.602;23.482;2022-07-22T08:01:17;93645.28;;;30.77;35.83
11806;BME280;5960;42.602;23.482;2022-07-22T08:03:44;93636.69;;;30.84;34.71
11806;BME280;5960;42.602;23.482;2022-07-22T08:06:10;93646.03;;;31.01;35.04
11806;BME280;5960;42.602;23.482;2022-07-22T08:08:38;93644.69;;;31.21;34.99
11806;BME280;5960;42.602;23.482;2022-07-22T08:11:04;93645.97;;;31.24;33.70
11806;BME280;5960;42.602;23.482;2022-07-22T08:13:33;93650.53;;;31.37;34.00
11806;BME280;5960;42.602;23.482;2022-07-22T08:15:59;93643.50;;;31.45;32.69
11806;BME280;5960;42.602;23.482;2022-07-22T08:18:27;93639.81;;;31.49;31.25
11806;BME280;5960;42.602;23.482;2022-07-22T08:20:55;93641.28;;;31.64;32.08
11806;BME280;5960;42.602;23.482;2022-07-22T08:23:23;93637.59;;;31.69;31.47
11806;BME280;5960;42.602;23.482;2022-07-22T08:25:49;93640.66;;;31.59;31.74
11806;BME280;5960;42.602;23.482;2022-07-22T08:28:17;93647.13;;;31.72;32.41
11806;BME280;5960;42.602;23.482;2022-07-22T08:30:45;93641.34;;;31.91;32.77
11806;BME280;5960;42.602;23.482;2022-07-22T08:33:12;93648.28;;;32.23;32.79
11806;BME280;5960;42.602;23.482;2022-07-22T08:35:40;93647.63;;;32.53;32.54
11806;BME280;5960;42.602;23.482;2022-07-22T08:38:06;93648.53;;;32.75;31.00
11806;BME280;5960;42.602;23.482;2022-07-22T08:40:33;93646.44;;;32.89;32.02
11806;BME280;5960;42.602;23.482;2022-07-22T08:43:00;93651.00;;;33.15;30.77
11806;BME280;5960;42.602;23.482;2022-07-22T08:45:29;93655.59;;;33.41;31.77
11806;BME280;5960;42.602;23.482;2022-07-22T08:47:58;93657.94;;;33.51;30.69
11806;BME280;5960;42.602;23.482;2022-07-22T08:50:28;93643.44;;;33.59;29.35
11806;BME280;5960;42.602;23.482;2022-07-22T08:52:55;93652.09;;;33.61;29.58
11806;BME280;5960;42.602;23.482;2022-07-22T08:55:22;93652.09;;;33.61;29.25
11806;BME280;5960;42.602;23.482;2022-07-22T08:57:50;93650.19;;;33.62;29.19
11806;BME280;5960;42.602;23.482;2022-07-22T09:00:18;93643.81;;;33.49;29.34
11806;BME280;5960;42.602;23.482;2022-07-22T09:02:46;93646.34;;;33.54;29.18
11806;BME280;5960;42.602;23.482;2022-07-22T09:05:15;93656.47;;;33.54;29.66
11806;BME280;5960;42.602;23.482;2022-07-22T09:07:43;93650.38;;;33.57;29.83
11806;BME280;5960;42.602;23.482;2022-07-22T09:10:14;93652.97;;;33.74;30.66
11806;BME280;5960;42.602;23.482;2022-07-22T09:12:51;93651.56;;;33.98;29.94
11806;BME280;5960;42.602;23.482;2022-07-22T09:15:25;93658.78;;;34.24;30.07
11806;BME280;5960;42.602;23.482;2022-07-22T09:17:53;93655.50;;;34.52;28.78
11806;BME280;5960;42.602;23.482;2022-07-22T09:20:21;93654.66;;;34.73;28.27
11806;BME280;5960;42.602;23.482;2022-07-22T09:22:51;93656.16;;;34.83;28.58
11806;BME280;5960;42.602;23.482;2022-07-22T09:25:20;93653.25;;;35.00;28.51
11806;BME280;5960;42.602;23.482;2022-07-22T09:27:49;93659.22;;;35.15;28.35
11806;BME280;5960;42.602;23.482;2022-07-22T09:30:19;93657.84;;;35.21;27.13
11806;BME280;5960;42.602;23.482;2022-07-22T09:32:46;93651.13;;;35.31;28.61
11806;BME280;5960;42.602;23.482;2022-07-22T09:35:13;93654.91;;;35.26;27.94
11806;BME280;5960;42.602;23.482;2022-07-22T09:37:50;93649.88;;;35.40;27.13
11806;BME280;5960;42.602;23.482;2022-07-22T09:40:18;93661.66;;;35.41;27.62
11806;BME280;5960;42.602;23.482;2022-07-22T09:42:47;93658.13;;;35.53;27.42
11806;BME280;5960;42.602;23.482;2022-07-22T09:45:15;93656.75;;;35.59;25.89
11806;BME280;5960;42.602;23.482;2022-07-22T09:47:43;93654.25;;;35.54;26.61
11806;BME280;5960;42.602;23.482;2022-07-22T09:50:18;93657.69;;;35.51;26.81
11806;BME280;5960;42.602;23.482;2022-07-22T09:52:45;93653.66;;;35.48;27.27
11806;BME280;5960;42.602;23.482;2022-07-22T09:55:15;93646.00;;;35.66;26.56
11806;BME280;5960;42.602;23.482;2022-07-22T09:57:43;93650.78;;;35.45;27.05
11806;BME280;5960;42.602;23.482;2022-07-22T10:00:10;93643.72;;;35.68;27.60
11806;BME280;5960;42.602;23.482;2022-07-22T10:02:44;93645.09;;;35.75;26.25
11806;BME280;5960;42.602;23.482;2022-07-22T10:05:13;93642.47;;;35.78;27.67
11806;BME280;5960;42.602;23.482;2022-07-22T10:07:42;93642.00;;;36.01;26.96
11806;BME280;5960;42.602;23.482;2022-07-22T10:10:11;93644.44;;;36.19;26.92
11806;BME280;5960;42.602;23.482;2022-07-22T10:12:41;93654.78;;;36.50;27.36
11806;BME280;5960;42.602;23.482;2022-07-22T10:15:09;93647.19;;;36.59;25.34
11806;BME280;5960;42.602;23.482;2022-07-22T10:17:37;93654.06;;;36.82;25.35
11806;BME280;5960;42.602;23.482;2022-07-22T10:20:06;93650.41;;;37.06;26.20
11806;BME280;5960;42.602;23.482;2022-07-22T10:22:51;93646.69;;;36.98;25.24
11806;BME280;5960;42.602;23.482;2022-07-22T10:25:20;93645.75;;;36.50;25.95
11806;BME280;5960;42.602;23.482;2022-07-22T10:27:51;93644.75;;;36.70;26.72
11806;BME280;5960;42.602;23.482;2022-07-22T10:30:19;93642.88;;;37.03;26.65
11806;BME280;5960;42.602;23.482;2022-07-22T10:33:04;93637.13;;;37.40;25.50
11806;BME280;5960;42.602;23.482;2022-07-22T10:35:33;93643.50;;;37.60;24.73
11806;BME280;5960;42.602;23.482;2022-07-22T10:38:03;93639.38;;;37.86;25.90
11806;BME280;5960;42.602;23.482;2022-07-22T10:40:31;93637.63;;;38.14;25.93
11806;BME280;5960;42.602;23.482;2022-07-22T10:43:13;93634.91;;;38.33;24.80
11806;BME280;5960;42.602;23.482;2022-07-22T10:45:44;93636.81;;;38.49;25.00
11806;BME280;5960;42.602;23.482;2022-07-22T10:48:13;93636.09;;;38.52;24.31
11806;BME280;5960;42.602;23.482;2022-07-22T10:51:04;93640.25;;;38.65;24.72
11806;BME280;5960;42.602;23.482;2022-07-22T10:53:46;93636.63;;;38.61;23.61
11806;BME280;5960;42.602;23.482;2022-07-22T10:56:18;93638.09;;;38.75;22.91
11806;BME280;5960;42.602;23.482;2022-07-22T10:58:57;93630.41;;;38.84;24.04
11806;BME280;5960;42.602;23.482;2022-07-22T11:01:27;93631.59;;;39.06;23.54
11806;BME280;5960;42.602;23.482;2022-07-22T11:03:55;93631.78;;;39.17;23.88
11806;BME280;5960;42.602;23.482;2022-07-22T11:06:27;93626.78;;;39.46;23.51
11806;BME280;5960;42.602;23.482;2022-07-22T11:08:57;93624.66;;;39.63;22.77
11806;BME280;5960;42.602;23.482;2022-07-22T11:11:38;93624.53;;;39.79;23.35
11806;BME280;5960;42.602;23.482;2022-07-22T11:14:19;93627.72;;;39.81;23.06
11806;BME280;5960;42.602;23.482;2022-07-22T11:16:48;93620.44;;;39.22;23.40
11806;BME280;5960;42.602;23.482;2022-07-22T11:19:19;93625.16;;;38.98;23.66
11806;BME280;5960;42.602;23.482;2022-07-22T11:21:50;93623.38;;;38.87;24.25
11806;BME280;5960;42.602;23.482;2022-07-22T11:24:18;93622.72;;;38.74;24.76
11806;BME280;5960;42.602;23.482;2022-07-22T11:26:46;93623.16;;;37.81;24.97
11806;BME280;5960;42.602;23.482;2022-07-22T11:29:18;93624.75;;;37.82;24.01
11806;BME280;5960;42.602;23.482;2022-07-22T11:31:45;93626.69;;;37.46;24.95
11806;BME280;5960;42.602;23.482;2022-07-22T11:34:13;93619.91;;;37.59;25.28
11806;BME280;5960;42.602;23.482;2022-07-22T11:36:42;93620.47;;;37.49;24.14
11806;BME280;5960;42.602;23.482;2022-07-22T11:39:11;93623.16;;;36.85;25.48
11806;BME280;5960;42.602;23.482;2022-07-22T11:41:39;93616.06;;;36.68;24.42
11806;BME280;5960;42.602;23.482;2022-07-22T11:44:07;93616.22;;;36.75;24.30
11806;BME280;5960;42.602;23.482;2022-07-22T11:46:40;93614.50;;;37.31;24.76
11806;BME280;5960;42.602;23.482;2022-07-22T11:49:08;93616.03;;;37.96;24.76
11806;BME280;5960;42.602;23.482;2022-07-22T11:51:37;93611.38;;;38.56;23.99
11806;BME280;5960;42.602;23.482;2022-07-22T11:54:04;93617.25;;;38.97;22.30
11806;BME280;5960;42.602;23.482;2022-07-22T11:56:32;93614.84;;;38.52;23.12
11806;BME280;5960;42.602;23.482;2022-07-22T11:58:59;93615.91;;;38.28;23.61
11806;BME280;5960;42.602;23.482;2022-07-22T12:01:31;93618.97;;;38.62;24.08
11806;BME280;5960;42.602;23.482;2022-07-22T12:04:02;93614.25;;;39.06;22.65
11806;BME280;5960;42.602;23.482;2022-07-22T12:06:31;93612.09;;;39.19;22.54
11806;BME280;5960;42.602;23.482;2022-07-22T12:09:04;93623.69;;;39.28;21.75
11806;BME280;5960;42.602;23.482;2022-07-22T12:11:32;93609.78;;;39.44;21.74
11806;BME280;5960;42.602;23.482;2022-07-22T12:14:05;93607.13;;;39.51;21.91
11806;BME280;5960;42.602;23.482;2022-07-22T12:16:34;93606.13;;;39.36;21.81
11806;BME280;5960;42.602;23.482;2022-07-22T12:19:04;93607.03;;;38.97;22.27
11806;BME280;5960;42.602;23.482;2022-07-22T12:21:33;93600.69;;;38.74;21.92
11806;BME280;5960;42.602;23.482;2022-07-22T12:24:01;93600.56;;;38.66;21.04
11806;BME280;5960;42.602;23.482;2022-07-22T12:26:39;93599.25;;;38.60;22.10
11806;BME280;5960;42.602;23.482;2022-07-22T12:29:14;93599.72;;;38.43;22.86
11806;BME280;5960;42.602;23.482;2022-07-22T12:31:42;93596.63;;;38.44;21.89
11806;BME280;5960;42.602;23.482;2022-07-22T12:34:10;93595.81;;;38.44;21.90
11806;BME280;5960;42.602;23.482;2022-07-22T12:36:37;93597.38;;;38.64;22.52
11806;BME280;5960;42.602;23.482;2022-07-22T12:39:12;93598.84;;;38.81;21.69
11806;BME280;5960;42.602;23.482;2022-07-22T12:41:48;93600.19;;;38.88;22.11
11806;BME280;5960;42.602;23.482;2022-07-22T12:44:17;93591.38;;;39.02;21.47
11806;BME280;5960;42.602;23.482;2022-07-22T12:46:44;93593.81;;;39.07;22.12
11806;BME280;5960;42.602;23.482;2022-07-22T12:49:15;93595.03;;;38.86;21.36
11806;BME280;5960;42.602;23.482;2022-07-22T12:54:24;93601.31;;;38.44;21.58
11806;BME280;5960;42.602;23.482;2022-07-22T12:56:51;93604.44;;;38.42;22.16
11806;BME280;5960;42.602;23.482;2022-07-22T12:59:18;93593.75;;;38.60;22.02
11806;BME280;5960;42.602;23.482;2022-07-22T13:01:44;93601.41;;;38.71;22.78
11806;BME280;5960;42.602;23.482;2022-07-22T13:04:15;93601.75;;;39.12;22.02
11806;BME280;5960;42.602;23.482;2022-07-22T13:06:42;93598.19;;;39.31;22.21